sensor_id;sensor_type;location;lat;lon;timestamp;P1;durP1;ratioP1;P2;durP2;ratioP2
60896;SDS011;46749;32.932;-117.130;2023-03-31T00:01:48;1.17;;;0.20;;
60896;SDS011;46749;32.932;-117.130;2023-03-31T00:04:17;0.88;;;0.20;;
60896;SDS011;46749;32.932;-117.130;2023-03-31T00:06:48;0.65;;;0.20;;
60896;SDS011;46749;32.932;-117.130;2023-03-31T00:09:18;1.38;;;0.43;;
60896;SDS011;46749;32.932;-117.130;2023-03-31T00:11:49;0.32;;;0.10;;
60896;SDS011;46749;32.932;-117.130;2023-03-31T00:14:17;0.73;;;0.25;;
60896;SDS011;46749;32.932;-117.130;2023-03-31T00:16:44;0.98;;;0.30;;
60896;SDS011;46749;32.932;-117.130;2023-03-31T00:19:11;0.82;;;0.28;;
60896;SDS011;46749;32.932;-117.130;2023-03-31T00:21:45;0.60;;;0.28;;
60896;SDS011;46749;32.932;-117.130;2023-03-31T00:24:13;1.48;;;0.30;;
60896;SDS011;46749;32.932;-117.130;2023-03-31T00:26:40;0.50;;;0.25;;
60896;SDS011;46749;32.932;-117.130;2023-03-31T00:29:07;4.25;;;0.75;;
60896;SDS011;46749;32.932;-117.130;2023-03-31T00:31:34;5.10;;;0.57;;
60896;SDS011;46749;32.932;-117.130;2023-03-31T00:34:03;2.97;;;0.55;;
60896;SDS011;46749;32.932;-117.130;2023-03-31T00:36:30;3.97;;;0.50;;
60896;SDS011;46749;32.932;-117.130;2023-03-31T00:39:02;0.90;;;0.30;;
60896;SDS011;46749;32.932;-117.130;2023-03-31T00:41:34;2.05;;;0.50;;
60896;SDS011;46749;32.932;-117.130;2023-03-31T00:44:12;2.33;;;0.38;;
60896;SDS011;46749;32.932;-117.130;2023-03-31T00:49:30;1.13;;;0.40;;
60896;SDS011;46749;32.932;-117.130;2023-03-31T00:52:06;2.80;;;0.60;;
60896;SDS011;46749;32.932;-117.130;2023-03-31T00:54:43;3.25;;;0.38;;
60896;SDS011;46749;32.932;-117.130;2023-03-31T00:57:12;0.90;;;0.40;;
60896;SDS011;46749;32.932;-117.130;2023-03-31T00:59:45;5.22;;;0.50;;
60896;SDS011;46749;32.932;-117.130;2023-03-31T01:02:15;4.07;;;0.30;;
60896;SDS011;46749;32.932;-117.130;2023-03-31T01:04:49;2.58;;;0.52;;
60896;SDS011;46749;32.932;-117.130;2023-03-31T01:09:48;1.27;;;0.40;;
60896;SDS011;46749;32.932;-117.130;2023-03-31T01:12:18;1.95;;;0.32;;
60896;SDS011;46749;32.932;-117.130;2023-03-31T01:15:06;1.48;;;0.50;;
60896;SDS011;46749;32.932;-117.130;2023-03-31T01:17:33;0.95;;;0.30;;
60896;SDS011;46749;32.932;-117.130;2023-03-31T01:20:03;1.65;;;0.50;;
60896;SDS011;46749;32.932;-117.130;2023-03-31T01:23:19;3.05;;;0.57;;
60896;SDS011;46749;32.932;-117.130;2023-03-31T01:28:32;7.38;;;0.57;;
60896;SDS011;46749;32.932;-117.130;2023-03-31T01:36:58;3.30;;;0.55;;
60896;SDS011;46749;32.932;-117.130;2023-03-31T01:45:34;3.83;;;0.50;;
60896;SDS011;46749;32.932;-117.130;2023-03-31T01:48:16;5.05;;;0.55;;
60896;SDS011;46749;32.932;-117.130;2023-03-31T01:50:57;1.95;;;0.63;;
60896;SDS011;46749;32.932;-117.130;2023-03-31T01:58:49;1.33;;;0.45;;
60896;SDS011;46749;32.932;-117.130;2023-03-31T02:01:28;2.47;;;0.63;;
60896;SDS011;46749;32.932;-117.130;2023-03-31T02:06:49;2.33;;;0.60;;
60896;SDS011;46749;32.932;-117.130;2023-03-31T02:09:22;3.00;;;1.15;;
60896;SDS011;46749;32.932;-117.130;2023-03-31T02:11:53;1.50;;;0.50;;
60896;SDS011;46749;32.932;-117.130;2023-03-31T02:14:23;1.70;;;0.40;;
60896;SDS011;46749;32.932;-117.130;2023-03-31T02:16:54;2.60;;;0.50;;
60896;SDS011;46749;32.932;-117.130;2023-03-31T02:19:24;0.77;;;0.50;;
60896;SDS011;46749;32.932;-117.130;2023-03-31T02:21:54;2.97;;;0.60;;
60896;SDS011;46749;32.932;-117.130;2023-03-31T02:24:22;2.50;;;0.57;;
60896;SDS011;46749;32.932;-117.130;2023-03-31T02:27:03;1.95;;;0.80;;
60896;SDS011;46749;32.932;-117.130;2023-03-31T02:29:34;2.40;;;0.60;;
60896;SDS011;46749;32.932;-117.130;2023-03-31T02:34:29;3.92;;;1.05;;
60896;SDS011;46749;32.932;-117.130;2023-03-31T02:36:56;3.85;;;0.70;;
60896;SDS011;46749;32.932;-117.130;2023-03-31T02:39:26;2.70;;;0.50;;
60896;SDS011;46749;32.932;-117.130;2023-03-31T02:41:58;1.55;;;0.40;;
60896;SDS011;46749;32.932;-117.130;2023-03-31T02:44:32;2.20;;;0.60;;
60896;SDS011;46749;32.932;-117.130;2023-03-31T02:47:03;0.60;;;0.35;;
60896;SDS011;46749;32.932;-117.130;2023-03-31T02:49:32;2.08;;;0.60;;
60896;SDS011;46749;32.932;-117.130;2023-03-31T02:52:12;1.77;;;0.40;;
60896;SDS011;46749;32.932;-117.130;2023-03-31T03:08:45;2.15;;;0.70;;
60896;SDS011;46749;32.932;-117.130;2023-03-31T03:11:21;3.65;;;0.73;;
60896;SDS011;46749;32.932;-117.130;2023-03-31T03:14:13;1.23;;;0.50;;
60896;SDS011;46749;32.932;-117.130;2023-03-31T03:16:44;3.40;;;0.57;;
60896;SDS011;46749;32.932;-117.130;2023-03-31T03:19:18;2.47;;;0.73;;
60896;SDS011;46749;32.932;-117.130;2023-03-31T03:21:47;1.23;;;0.50;;
60896;SDS011;46749;32.932;-117.130;2023-03-31T03:24:17;1.88;;;0.70;;
60896;SDS011;46749;32.932;-117.130;2023-03-31T03:26:44;0.65;;;0.30;;
60896;SDS011;46749;32.932;-117.130;2023-03-31T03:29:10;2.28;;;0.70;;
60896;SDS011;46749;32.932;-117.130;2023-03-31T03:31:41;2.08;;;0.50;;
60896;SDS011;46749;32.932;-117.130;2023-03-31T03:34:07;1.45;;;0.60;;
60896;SDS011;46749;32.932;-117.130;2023-03-31T03:36:36;3.03;;;0.80;;
60896;SDS011;46749;32.932;-117.130;2023-03-31T03:39:04;2.25;;;0.55;;
60896;SDS011;46749;32.932;-117.130;2023-03-31T03:41:32;1.48;;;0.40;;
60896;SDS011;46749;32.932;-117.130;2023-03-31T03:43:59;2.28;;;0.95;;
60896;SDS011;46749;32.932;-117.130;2023-03-31T03:46:26;1.38;;;0.50;;
60896;SDS011;46749;32.932;-117.130;2023-03-31T03:48:52;1.70;;;0.50;;
60896;SDS011;46749;32.932;-117.130;2023-03-31T03:51:18;1.33;;;0.50;;
60896;SDS011;46749;32.932;-117.130;2023-03-31T03:53:45;2.80;;;0.57;;
60896;SDS011;46749;32.932;-117.130;2023-03-31T03:56:11;1.00;;;0.47;;
60896;SDS011;46749;32.932;-117.130;2023-03-31T03:58:37;1.63;;;0.50;;
60896;SDS011;46749;32.932;-117.130;2023-03-31T04:01:06;0.77;;;0.50;;
60896;SDS011;46749;32.932;-117.130;2023-03-31T04:03:35;2.00;;;0.45;;
60896;SDS011;46749;32.932;-117.130;2023-03-31T04:06:02;2.33;;;0.47;;
60896;SDS011;46749;32.932;-117.130;2023-03-31T04:08:29;1.85;;;0.57;;
60896;SDS011;46749;32.932;-117.130;2023-03-31T04:10:56;2.42;;;0.60;;
60896;SDS011;46749;32.932;-117.130;2023-03-31T04:13:22;1.42;;;0.40;;
60896;SDS011;46749;32.932;-117.130;2023-03-31T04:15:49;3.20;;;0.70;;
60896;SDS011;46749;32.932;-117.130;2023-03-31T04:18:17;1.80;;;0.52;;
60896;SDS011;46749;32.932;-117.130;2023-03-31T04:20:51;1.73;;;0.70;;
60896;SDS011;46749;32.932;-117.130;2023-03-31T04:23:34;2.60;;;0.63;;
60896;SDS011;46749;32.932;-117.130;2023-03-31T04:26:11;1.75;;;0.65;;
60896;SDS011;46749;32.932;-117.130;2023-03-31T04:28:40;13.18;;;1.52;;
60896;SDS011;46749;32.932;-117.130;2023-03-31T04:31:16;8.23;;;1.00;;
60896;SDS011;46749;32.932;-117.130;2023-03-31T04:33:50;8.20;;;0.93;;
60896;SDS011;46749;32.932;-117.130;2023-03-31T04:36:27;9.43;;;1.25;;
60896;SDS011;46749;32.932;-117.130;2023-03-31T04:38:56;6.60;;;0.95;;
60896;SDS011;46749;32.932;-117.130;2023-03-31T04:41:23;4.00;;;0.95;;
60896;SDS011;46749;32.932;-117.130;2023-03-31T04:43:52;4.63;;;1.05;;
60896;SDS011;46749;32.932;-117.130;2023-03-31T04:46:19;4.32;;;0.90;;
60896;SDS011;46749;32.932;-117.130;2023-03-31T04:48:47;6.80;;;0.60;;
60896;SDS011;46749;32.932;-117.130;2023-03-31T04:51:14;5.60;;;1.02;;
60896;SDS011;46749;32.932;-117.130;2023-03-31T04:53:41;2.97;;;0.50;;
60896;SDS011;46749;32.932;-117.130;2023-03-31T04:56:08;4.75;;;1.17;;
60896;SDS011;46749;32.932;-117.130;2023-03-31T04:58:34;4.97;;;0.80;;
60896;SDS011;46749;32.932;-117.130;2023-03-31T05:01:01;3.35;;;0.70;;
60896;SDS011;46749;32.932;-117.130;2023-03-31T05:03:27;4.07;;;0.68;;
60896;SDS011;46749;32.932;-117.130;2023-03-31T05:05:54;2.85;;;0.80;;
60896;SDS011;46749;32.932;-117.130;2023-03-31T05:08:21;7.38;;;1.00;;
60896;SDS011;46749;32.932;-117.130;2023-03-31T05:10:51;4.68;;;0.63;;
60896;SDS011;46749;32.932;-117.130;2023-03-31T05:13:18;2.35;;;0.57;;
60896;SDS011;46749;32.932;-117.130;2023-03-31T05:15:46;2.58;;;0.70;;
60896;SDS011;46749;32.932;-117.130;2023-03-31T05:18:15;2.33;;;0.65;;
60896;SDS011;46749;32.932;-117.130;2023-03-31T05:20:53;1.77;;;0.85;;
60896;SDS011;46749;32.932;-117.130;2023-03-31T05:23:20;3.03;;;0.70;;
60896;SDS011;46749;32.932;-117.130;2023-03-31T05:25:47;2.22;;;0.60;;
60896;SDS011;46749;32.932;-117.130;2023-03-31T05:28:14;2.53;;;0.70;;
60896;SDS011;46749;32.932;-117.130;2023-03-31T05:30:41;3.13;;;0.70;;
60896;SDS011;46749;32.932;-117.130;2023-03-31T05:33:09;5.00;;;1.20;;
60896;SDS011;46749;32.932;-117.130;2023-03-31T05:35:36;2.22;;;1.20;;
60896;SDS011;46749;32.932;-117.130;2023-03-31T05:38:04;4.47;;;0.70;;
60896;SDS011;46749;32.932;-117.130;2023-03-31T05:40:30;1.92;;;0.60;;
60896;SDS011;46749;32.932;-117.130;2023-03-31T05:42:56;3.25;;;0.65;;
60896;SDS011;46749;32.932;-117.130;2023-03-31T05:45:23;2.65;;;0.68;;
60896;SDS011;46749;32.932;-117.130;2023-03-31T05:47:49;2.17;;;0.60;;
60896;SDS011;46749;32.932;-117.130;2023-03-31T05:50:17;3.92;;;0.90;;
60896;SDS011;46749;32.932;-117.130;2023-03-31T05:52:43;3.38;;;0.60;;
60896;SDS011;46749;32.932;-117.130;2023-03-31T05:55:09;3.10;;;0.75;;
60896;SDS011;46749;32.932;-117.130;2023-03-31T05:57:38;1.88;;;0.50;;
60896;SDS011;46749;32.932;-117.130;2023-03-31T06:00:04;4.28;;;0.73;;
60896;SDS011;46749;32.932;-117.130;2023-03-31T06:02:34;2.70;;;0.60;;
60896;SDS011;46749;32.932;-117.130;2023-03-31T06:05:00;3.42;;;0.82;;
60896;SDS011;46749;32.932;-117.130;2023-03-31T06:07:27;2.78;;;0.70;;
60896;SDS011;46749;32.932;-117.130;2023-03-31T06:09:53;3.22;;;0.80;;
60896;SDS011;46749;32.932;-117.130;2023-03-31T06:12:19;2.47;;;0.63;;
60896;SDS011;46749;32.932;-117.130;2023-03-31T06:14:47;1.10;;;0.50;;
60896;SDS011;46749;32.932;-117.130;2023-03-31T06:17:13;2.40;;;0.60;;
60896;SDS011;46749;32.932;-117.130;2023-03-31T06:19:40;3.08;;;0.80;;
60896;SDS011;46749;32.932;-117.130;2023-03-31T06:22:08;2.38;;;0.65;;
60896;SDS011;46749;32.932;-117.130;2023-03-31T06:24:34;2.40;;;0.68;;
60896;SDS011;46749;32.932;-117.130;2023-03-31T06:27:00;3.45;;;0.80;;
60896;SDS011;46749;32.932;-117.130;2023-03-31T06:29:29;3.88;;;0.70;;
60896;SDS011;46749;32.932;-117.130;2023-03-31T06:31:55;2.08;;;0.70;;
60896;SDS011;46749;32.932;-117.130;2023-03-31T06:34:23;2.97;;;0.85;;
60896;SDS011;46749;32.932;-117.130;2023-03-31T06:36:51;1.65;;;0.70;;
60896;SDS011;46749;32.932;-117.130;2023-03-31T06:39:18;1.77;;;0.70;;
60896;SDS011;46749;32.932;-117.130;2023-03-31T06:41:48;4.18;;;0.88;;
60896;SDS011;46749;32.932;-117.130;2023-03-31T06:44:15;3.17;;;1.00;;
60896;SDS011;46749;32.932;-117.130;2023-03-31T06:46:43;2.40;;;0.93;;
60896;SDS011;46749;32.932;-117.130;2023-03-31T06:49:11;2.85;;;0.82;;
60896;SDS011;46749;32.932;-117.130;2023-03-31T06:51:37;5.43;;;0.90;;
60896;SDS011;46749;32.932;-117.130;2023-03-31T06:54:03;3.67;;;1.30;;
60896;SDS011;46749;32.932;-117.130;2023-03-31T06:56:30;1.58;;;0.70;;
60896;SDS011;46749;32.932;-117.130;2023-03-31T06:58:56;2.47;;;0.85;;
60896;SDS011;46749;32.932;-117.130;2023-03-31T07:01:23;2.03;;;0.77;;
60896;SDS011;46749;32.932;-117.130;2023-03-31T07:03:49;2.17;;;0.75;;
60896;SDS011;46749;32.932;-117.130;2023-03-31T07:06:16;3.35;;;1.33;;
60896;SDS011;46749;32.932;-117.130;2023-03-31T07:08:44;3.75;;;0.65;;
60896;SDS011;46749;32.932;-117.130;2023-03-31T07:11:12;2.58;;;1.08;;
60896;SDS011;46749;32.932;-117.130;2023-03-31T07:13:38;2.20;;;0.70;;
60896;SDS011;46749;32.932;-117.130;2023-03-31T07:16:04;2.58;;;0.60;;
60896;SDS011;46749;32.932;-117.130;2023-03-31T07:18:32;2.08;;;0.80;;
60896;SDS011;46749;32.932;-117.130;2023-03-31T07:21:01;4.10;;;0.80;;
60896;SDS011;46749;32.932;-117.130;2023-03-31T07:23:28;2.15;;;0.68;;
60896;SDS011;46749;32.932;-117.130;2023-03-31T07:25:54;2.95;;;0.77;;
60896;SDS011;46749;32.932;-117.130;2023-03-31T07:28:25;3.53;;;0.80;;
60896;SDS011;46749;32.932;-117.130;2023-03-31T07:30:52;3.60;;;0.90;;
60896;SDS011;46749;32.932;-117.130;2023-03-31T07:33:18;2.67;;;0.57;;
60896;SDS011;46749;32.932;-117.130;2023-03-31T07:35:45;3.97;;;0.80;;
60896;SDS011;46749;32.932;-117.130;2023-03-31T07:38:12;3.42;;;0.80;;
60896;SDS011;46749;32.932;-117.130;2023-03-31T07:40:39;3.50;;;0.70;;
60896;SDS011;46749;32.932;-117.130;2023-03-31T07:43:06;3.65;;;0.73;;
60896;SDS011;46749;32.932;-117.130;2023-03-31T07:45:33;1.77;;;0.70;;
60896;SDS011;46749;32.932;-117.130;2023-03-31T07:48:00;3.63;;;1.00;;
60896;SDS011;46749;32.932;-117.130;2023-03-31T07:50:26;2.55;;;0.70;;
60896;SDS011;46749;32.932;-117.130;2023-03-31T07:52:53;2.33;;;0.45;;
60896;SDS011;46749;32.932;-117.130;2023-03-31T07:55:20;6.15;;;1.00;;
60896;SDS011;46749;32.932;-117.130;2023-03-31T07:57:47;2.13;;;0.75;;
60896;SDS011;46749;32.932;-117.130;2023-03-31T08:00:15;2.22;;;0.63;;
60896;SDS011;46749;32.932;-117.130;2023-03-31T08:02:42;2.22;;;0.90;;
60896;SDS011;46749;32.932;-117.130;2023-03-31T08:05:09;3.67;;;0.90;;
60896;SDS011;46749;32.932;-117.130;2023-03-31T08:07:39;3.25;;;0.75;;
60896;SDS011;46749;32.932;-117.130;2023-03-31T08:10:09;1.83;;;0.50;;
60896;SDS011;46749;32.932;-117.130;2023-03-31T08:12:38;1.02;;;0.50;;
60896;SDS011;46749;32.932;-117.130;2023-03-31T08:15:05;2.13;;;0.80;;
60896;SDS011;46749;32.932;-117.130;2023-03-31T08:17:34;1.88;;;0.60;;
60896;SDS011;46749;32.932;-117.130;2023-03-31T08:20:00;3.38;;;0.90;;
60896;SDS011;46749;32.932;-117.130;2023-03-31T08:22:26;3.67;;;0.63;;
60896;SDS011;46749;32.932;-117.130;2023-03-31T08:24:53;1.92;;;0.65;;
60896;SDS011;46749;32.932;-117.130;2023-03-31T08:27:19;3.63;;;0.85;;
60896;SDS011;46749;32.932;-117.130;2023-03-31T08:29:46;3.50;;;0.75;;
60896;SDS011;46749;32.932;-117.130;2023-03-31T08:32:12;3.83;;;0.60;;
60896;SDS011;46749;32.932;-117.130;2023-03-31T08:34:38;3.33;;;0.60;;
60896;SDS011;46749;32.932;-117.130;2023-03-31T08:37:07;1.20;;;0.63;;
60896;SDS011;46749;32.932;-117.130;2023-03-31T08:39:34;3.40;;;0.68;;
60896;SDS011;46749;32.932;-117.130;2023-03-31T08:42:03;2.42;;;0.75;;
60896;SDS011;46749;32.932;-117.130;2023-03-31T08:44:48;2.08;;;0.60;;
60896;SDS011;46749;32.932;-117.130;2023-03-31T08:47:23;1.20;;;0.60;;
60896;SDS011;46749;32.932;-117.130;2023-03-31T08:49:58;2.38;;;0.73;;
60896;SDS011;46749;32.932;-117.130;2023-03-31T08:52:37;1.35;;;0.57;;
60896;SDS011;46749;32.932;-117.130;2023-03-31T08:55:27;2.00;;;0.57;;
60896;SDS011;46749;32.932;-117.130;2023-03-31T08:58:10;1.95;;;0.80;;
60896;SDS011;46749;32.932;-117.130;2023-03-31T09:00:48;1.83;;;0.55;;
60896;SDS011;46749;32.932;-117.130;2023-03-31T09:03:23;2.90;;;0.82;;
60896;SDS011;46749;32.932;-117.130;2023-03-31T09:06:05;2.85;;;0.80;;
60896;SDS011;46749;32.932;-117.130;2023-03-31T09:08:41;2.22;;;0.60;;
60896;SDS011;46749;32.932;-117.130;2023-03-31T09:11:10;1.73;;;0.65;;
60896;SDS011;46749;32.932;-117.130;2023-03-31T09:18:57;1.45;;;0.70;;
60896;SDS011;46749;32.932;-117.130;2023-03-31T09:21:32;1.33;;;0.50;;
60896;SDS011;46749;32.932;-117.130;2023-03-31T09:26:45;3.00;;;0.68;;
60896;SDS011;46749;32.932;-117.130;2023-03-31T09:29:40;1.38;;;0.50;;
60896;SDS011;46749;32.932;-117.130;2023-03-31T09:32:13;1.73;;;0.70;;
60896;SDS011;46749;32.932;-117.130;2023-03-31T09:34:41;1.80;;;0.57;;
60896;SDS011;46749;32.932;-117.130;2023-03-31T09:37:09;3.38;;;0.80;;
60896;SDS011;46749;32.932;-117.130;2023-03-31T09:39:37;2.15;;;0.70;;
60896;SDS011;46749;32.932;-117.130;2023-03-31T09:42:08;1.50;;;0.65;;
60896;SDS011;46749;32.932;-117.130;2023-03-31T09:44:42;2.35;;;0.70;;
60896;SDS011;46749;32.932;-117.130;2023-03-31T09:47:30;1.83;;;0.65;;
60896;SDS011;46749;32.932;-117.130;2023-03-31T09:50:03;1.40;;;0.60;;
60896;SDS011;46749;32.932;-117.130;2023-03-31T09:52:32;2.47;;;0.70;;
60896;SDS011;46749;32.932;-117.130;2023-03-31T09:55:26;2.83;;;0.90;;
60896;SDS011;46749;32.932;-117.130;2023-03-31T09:58:02;2.35;;;0.68;;
60896;SDS011;46749;32.932;-117.130;2023-03-31T10:00:32;1.98;;;0.70;;
60896;SDS011;46749;32.932;-117.130;2023-03-31T10:03:03;2.28;;;0.50;;
60896;SDS011;46749;32.932;-117.130;2023-03-31T10:05:36;1.65;;;0.70;;
60896;SDS011;46749;32.932;-117.130;2023-03-31T10:08:28;1.70;;;0.70;;
60896;SDS011;46749;32.932;-117.130;2023-03-31T10:11:06;2.63;;;0.60;;
60896;SDS011;46749;32.932;-117.130;2023-03-31T10:16:02;2.05;;;0.68;;
60896;SDS011;46749;32.932;-117.130;2023-03-31T10:18:34;1.63;;;0.63;;
60896;SDS011;46749;32.932;-117.130;2023-03-31T10:21:23;2.47;;;0.63;;
60896;SDS011;46749;32.932;-117.130;2023-03-31T10:23:52;3.15;;;0.55;;
60896;SDS011;46749;32.932;-117.130;2023-03-31T10:26:24;1.40;;;0.60;;
60896;SDS011;46749;32.932;-117.130;2023-03-31T10:28:52;3.38;;;0.82;;
60896;SDS011;46749;32.932;-117.130;2023-03-31T10:31:22;0.90;;;0.40;;
60896;SDS011;46749;32.932;-117.130;2023-03-31T10:34:03;2.75;;;0.63;;
60896;SDS011;46749;32.932;-117.130;2023-03-31T10:36:31;0.90;;;0.50;;
60896;SDS011;46749;32.932;-117.130;2023-03-31T10:38:59;1.65;;;0.60;;
60896;SDS011;46749;32.932;-117.130;2023-03-31T10:41:33;0.93;;;0.47;;
60896;SDS011;46749;32.932;-117.130;2023-03-31T10:44:01;4.10;;;0.70;;
60896;SDS011;46749;32.932;-117.130;2023-03-31T10:49:39;2.45;;;0.80;;
60896;SDS011;46749;32.932;-117.130;2023-03-31T10:52:16;2.80;;;0.60;;
60896;SDS011;46749;32.932;-117.130;2023-03-31T10:54:59;1.73;;;0.60;;
60896;SDS011;46749;32.932;-117.130;2023-03-31T10:57:35;1.58;;;0.70;;
60896;SDS011;46749;32.932;-117.130;2023-03-31T11:00:26;2.95;;;0.77;;
60896;SDS011;46749;32.932;-117.130;2023-03-31T11:03:16;2.38;;;0.50;;
60896;SDS011;46749;32.932;-117.130;2023-03-31T11:06:16;2.08;;;0.68;;
60896;SDS011;46749;32.932;-117.130;2023-03-31T11:09:29;1.50;;;0.70;;
60896;SDS011;46749;32.932;-117.130;2023-03-31T11:13:07;1.77;;;0.60;;
60896;SDS011;46749;32.932;-117.130;2023-03-31T11:15:10;1.15;;;0.70;;
60896;SDS011;46749;32.932;-117.130;2023-03-31T11:18:10;1.08;;;0.55;;
60896;SDS011;46749;32.932;-117.130;2023-03-31T11:21:02;2.78;;;0.77;;
60896;SDS011;46749;32.932;-117.130;2023-03-31T11:29:47;1.38;;;0.50;;
60896;SDS011;46749;32.932;-117.130;2023-03-31T11:32:54;3.03;;;0.80;;
60896;SDS011;46749;32.932;-117.130;2023-03-31T11:35:35;2.03;;;0.60;;
60896;SDS011;46749;32.932;-117.130;2023-03-31T11:38:37;1.45;;;0.60;;
60896;SDS011;46749;32.932;-117.130;2023-03-31T11:41:35;2.03;;;0.60;;
60896;SDS011;46749;32.932;-117.130;2023-03-31T11:44:10;1.98;;;0.68;;
60896;SDS011;46749;32.932;-117.130;2023-03-31T11:49:27;1.80;;;0.68;;
60896;SDS011;46749;32.932;-117.130;2023-03-31T11:51:59;1.33;;;0.50;;
60896;SDS011;46749;32.932;-117.130;2023-03-31T11:54:38;2.92;;;0.55;;
60896;SDS011;46749;32.932;-117.130;2023-03-31T11:57:22;3.00;;;0.90;;
60896;SDS011;46749;32.932;-117.130;2023-03-31T11:59:54;1.42;;;0.68;;
60896;SDS011;46749;32.932;-117.130;2023-03-31T12:05:35;1.20;;;0.65;;
60896;SDS011;46749;32.932;-117.130;2023-03-31T12:10:39;3.72;;;0.70;;
60896;SDS011;46749;32.932;-117.130;2023-03-31T12:16:18;1.80;;;0.75;;
60896;SDS011;46749;32.932;-117.130;2023-03-31T12:21:31;2.17;;;0.60;;
60896;SDS011;46749;32.932;-117.130;2023-03-31T12:24:02;2.15;;;0.60;;
60896;SDS011;46749;32.932;-117.130;2023-03-31T12:28:58;1.42;;;0.52;;
60896;SDS011;46749;32.932;-117.130;2023-03-31T12:31:40;1.55;;;0.50;;
60896;SDS011;46749;32.932;-117.130;2023-03-31T12:34:11;2.83;;;0.82;;
60896;SDS011;46749;32.932;-117.130;2023-03-31T12:44:56;1.65;;;0.80;;
60896;SDS011;46749;32.932;-117.130;2023-03-31T12:54:25;2.75;;;0.70;;
60896;SDS011;46749;32.932;-117.130;2023-03-31T13:04:40;2.05;;;0.70;;
60896;SDS011;46749;32.932;-117.130;2023-03-31T13:09:55;2.80;;;0.45;;
60896;SDS011;46749;32.932;-117.130;2023-03-31T13:12:23;3.90;;;0.52;;
60896;SDS011;46749;32.932;-117.130;2023-03-31T13:14:52;2.38;;;0.95;;
60896;SDS011;46749;32.932;-117.130;2023-03-31T13:20:14;1.23;;;0.60;;
60896;SDS011;46749;32.932;-117.130;2023-03-31T13:22:53;1.38;;;0.50;;
60896;SDS011;46749;32.932;-117.130;2023-03-31T13:25:34;3.22;;;0.60;;
60896;SDS011;46749;32.932;-117.130;2023-03-31T13:35:56;1.73;;;0.57;;
60896;SDS011;46749;32.932;-117.130;2023-03-31T13:52:46;2.70;;;0.70;;
60896;SDS011;46749;32.932;-117.130;2023-03-31T14:03:43;0.93;;;0.57;;
60896;SDS011;46749;32.932;-117.130;2023-03-31T14:09:23;1.73;;;0.50;;
60896;SDS011;46749;32.932;-117.130;2023-03-31T14:11:57;2.25;;;0.77;;
60896;SDS011;46749;32.932;-117.130;2023-03-31T14:14:43;1.73;;;0.50;;
60896;SDS011;46749;32.932;-117.130;2023-03-31T14:17:10;1.95;;;0.52;;
60896;SDS011;46749;32.932;-117.130;2023-03-31T14:22:13;1.58;;;0.57;;
60896;SDS011;46749;32.932;-117.130;2023-03-31T14:24:54;1.58;;;0.60;;
60896;SDS011;46749;32.932;-117.130;2023-03-31T14:27:43;1.02;;;0.57;;
60896;SDS011;46749;32.932;-117.130;2023-03-31T14:30:32;1.45;;;0.50;;
60896;SDS011;46749;32.932;-117.130;2023-03-31T14:35:56;1.45;;;0.60;;
60896;SDS011;46749;32.932;-117.130;2023-03-31T14:38:32;2.20;;;0.50;;
60896;SDS011;46749;32.932;-117.130;2023-03-31T14:40:59;2.08;;;0.68;;
60896;SDS011;46749;32.932;-117.130;2023-03-31T14:43:26;1.80;;;0.75;;
60896;SDS011;46749;32.932;-117.130;2023-03-31T14:46:05;2.85;;;1.35;;
60896;SDS011;46749;32.932;-117.130;2023-03-31T14:48:43;7.90;;;5.90;;
60896;SDS011;46749;32.932;-117.130;2023-03-31T14:51:15;11.82;;;7.93;;
60896;SDS011;46749;32.932;-117.130;2023-03-31T14:53:44;9.10;;;7.38;;
60896;SDS011;46749;32.932;-117.130;2023-03-31T14:56:14;9.27;;;7.40;;
60896;SDS011;46749;32.932;-117.130;2023-03-31T14:58:47;12.95;;;8.32;;
60896;SDS011;46749;32.932;-117.130;2023-03-31T15:01:18;12.23;;;8.18;;
60896;SDS011;46749;32.932;-117.130;2023-03-31T15:03:48;10.48;;;7.13;;
60896;SDS011;46749;32.932;-117.130;2023-03-31T15:06:17;8.70;;;6.40;;
60896;SDS011;46749;32.932;-117.130;2023-03-31T15:08:45;8.68;;;6.05;;
60896;SDS011;46749;32.932;-117.130;2023-03-31T15:11:15;9.10;;;6.15;;
60896;SDS011;46749;32.932;-117.130;2023-03-31T15:13:48;8.45;;;5.97;;
60896;SDS011;46749;32.932;-117.130;2023-03-31T15:16:28;7.70;;;5.00;;
60896;SDS011;46749;32.932;-117.130;2023-03-31T15:18:56;8.43;;;5.68;;
60896;SDS011;46749;32.932;-117.130;2023-03-31T15:21:24;8.02;;;5.15;;
60896;SDS011;46749;32.932;-117.130;2023-03-31T15:23:55;6.18;;;4.82;;
60896;SDS011;46749;32.932;-117.130;2023-03-31T15:26:25;7.88;;;5.50;;
60896;SDS011;46749;32.932;-117.130;2023-03-31T15:29:03;8.32;;;5.20;;
60896;SDS011;46749;32.932;-117.130;2023-03-31T15:31:38;7.45;;;4.43;;
60896;SDS011;46749;32.932;-117.130;2023-03-31T15:34:13;7.18;;;4.28;;
60896;SDS011;46749;32.932;-117.130;2023-03-31T15:36:47;6.90;;;4.20;;
60896;SDS011;46749;32.932;-117.130;2023-03-31T15:39:15;6.40;;;4.80;;
60896;SDS011;46749;32.932;-117.130;2023-03-31T15:41:41;7.00;;;4.65;;
60896;SDS011;46749;32.932;-117.130;2023-03-31T15:49:49;10.35;;;6.15;;
60896;SDS011;46749;32.932;-117.130;2023-03-31T15:52:35;9.45;;;6.20;;
60896;SDS011;46749;32.932;-117.130;2023-03-31T15:57:50;9.20;;;6.30;;
60896;SDS011;46749;32.932;-117.130;2023-03-31T16:03:03;10.23;;;7.22;;
60896;SDS011;46749;32.932;-117.130;2023-03-31T16:11:08;10.85;;;8.10;;
60896;SDS011;46749;32.932;-117.130;2023-03-31T16:13:45;11.88;;;8.23;;
60896;SDS011;46749;32.932;-117.130;2023-03-31T16:16:19;11.82;;;7.75;;
60896;SDS011;46749;32.932;-117.130;2023-03-31T16:18:51;9.55;;;7.63;;
60896;SDS011;46749;32.932;-117.130;2023-03-31T16:21:29;10.93;;;7.45;;
60896;SDS011;46749;32.932;-117.130;2023-03-31T16:24:01;8.38;;;6.60;;
60896;SDS011;46749;32.932;-117.130;2023-03-31T16:26:29;9.15;;;7.00;;
60896;SDS011;46749;32.932;-117.130;2023-03-31T16:28:56;9.05;;;6.50;;
60896;SDS011;46749;32.932;-117.130;2023-03-31T16:31:29;9.50;;;6.13;;
60896;SDS011;46749;32.932;-117.130;2023-03-31T16:34:07;6.53;;;4.65;;
60896;SDS011;46749;32.932;-117.130;2023-03-31T16:36:35;7.68;;;5.68;;
60896;SDS011;46749;32.932;-117.130;2023-03-31T16:39:02;8.27;;;5.28;;
60896;SDS011;46749;32.932;-117.130;2023-03-31T16:41:33;6.95;;;4.82;;
60896;SDS011;46749;32.932;-117.130;2023-03-31T16:44:01;5.90;;;4.40;;
60896;SDS011;46749;32.932;-117.130;2023-03-31T16:46:28;6.72;;;4.35;;
60896;SDS011;46749;32.932;-117.130;2023-03-31T16:48:54;7.65;;;4.20;;
60896;SDS011;46749;32.932;-117.130;2023-03-31T16:51:20;5.07;;;3.55;;
60896;SDS011;46749;32.932;-117.130;2023-03-31T16:53:47;6.80;;;3.33;;
60896;SDS011;46749;32.932;-117.130;2023-03-31T16:56:15;5.38;;;4.00;;
60896;SDS011;46749;32.932;-117.130;2023-03-31T16:58:41;5.05;;;3.20;;
60896;SDS011;46749;32.932;-117.130;2023-03-31T17:01:08;4.10;;;3.08;;
60896;SDS011;46749;32.932;-117.130;2023-03-31T17:03:35;3.83;;;3.00;;
60896;SDS011;46749;32.932;-117.130;2023-03-31T17:06:04;4.85;;;3.00;;
60896;SDS011;46749;32.932;-117.130;2023-03-31T17:08:33;4.45;;;2.58;;
60896;SDS011;46749;32.932;-117.130;2023-03-31T17:11:01;3.50;;;2.10;;
60896;SDS011;46749;32.932;-117.130;2023-03-31T17:13:29;3.42;;;2.25;;
60896;SDS011;46749;32.932;-117.130;2023-03-31T17:15:57;3.53;;;2.13;;
60896;SDS011;46749;32.932;-117.130;2023-03-31T17:18:23;3.10;;;2.03;;
60896;SDS011;46749;32.932;-117.130;2023-03-31T17:20:51;3.38;;;1.98;;